This is the latest recevied weather packets stored in our database for station/object JA3QOS-13. If no packets are shown the sender has not sent any weather packets the latest 10 day(s).
| Time | Temp. | Humidity | Pressure | Rain* | Wind** | Luminosity | Snow |
|---|---|---|---|---|---|---|---|
| 1787625003 | 28.33° C | 85% | 1015.4 hPa | 0 mm | - | - | - |
| 1787623204 | 28.89° C | 80% | 1015.6 hPa | 0 mm | - | - | - |
| 1787621404 | 28.89° C | 83% | 1015.8 hPa | 0 mm | - | - | - |
| 1787619603 | 27.78° C | 84% | 1016 hPa | 0 mm | - | - | - |
| 1787617804 | 26.11° C | 91% | 1015.7 hPa | 0 mm | - | - | - |
| 1787616008 | 26.11° C | 91% | 1015.8 hPa | 0 mm | - | - | - |
| 1787614203 | 25° C | 97% | 1015.6 hPa | 0 mm | - | - | - |
| 1787612403 | 23.89° C | 99% | 1015.5 hPa | 0 mm | - | - | - |
| 1787610604 | 23.89° C | 99% | 1015.2 hPa | 0 mm | - | - | - |
| 1787608804 | 23.33° C | 99% | 1015.6 hPa | 0 mm | - | - | - |
| 1787607003 | 22.78° C | 99% | 1015.3 hPa | 0 mm | - | - | - |
| 1787605204 | 22.22° C | 99% | 1015.1 hPa | 0 mm | - | - | - |
| 1787603404 | 22.22° C | 99% | 1014.9 hPa | 0 mm | - | - | - |
| 1787601620 | 22.22° C | 99% | 1015 hPa | 0 mm | - | - | - |
| 1787599820 | 22.78° C | 99% | 1014.8 hPa | 0 mm | - | - | - |
| 1787598003 | 22.78° C | 99% | 1014.8 hPa | 0 mm | - | - | - |
| 1787596204 | 22.78° C | 99% | 1014.8 hPa | 0 mm | - | - | - |
| 1787594404 | 23.33° C | 99% | 1014.7 hPa | 0 mm | - | - | - |
| 1787592604 | 23.33° C | 99% | 1014.8 hPa | 0 mm | - | - | - |
| 1787590804 | 23.33° C | 99% | 1014.9 hPa | 0 mm | - | - | - |
| 1787589004 | 23.33° C | 99% | 1015.1 hPa | 0 mm | - | - | - |
| 1787587204 | 23.33° C | 99% | 1015.3 hPa | 0 mm | - | - | - |
| 1787585403 | 23.89° C | 99% | 1015.4 hPa | 0 mm | - | - | - |
| 1787583604 | 23.89° C | 99% | 1015.8 hPa | 0 mm | - | - | - |
| 1787581804 | 23.89° C | 96% | 1015.8 hPa | 0 mm | - | - | - |
* Rain latest hour (hover to see other rain measurements)
** Current wind speed in m/s (hover to see current wind gust speed)